createdAt,value
2018-07-01T00:00:14.952Z,20.80
2018-07-01T00:05:13.181Z,20.80
2018-07-01T00:10:11.572Z,20.80
2018-07-01T00:12:40.999Z,20.80
2018-07-01T00:15:10.273Z,20.80
2018-07-01T00:17:39.859Z,20.70
2018-07-01T00:20:10.104Z,20.70
2018-07-01T00:25:08.786Z,20.60
2018-07-01T00:27:38.143Z,20.60
2018-07-01T00:30:07.588Z,20.60
2018-07-01T00:32:37.139Z,20.50
2018-07-01T00:35:06.400Z,20.50
2018-07-01T00:37:35.759Z,20.40
2018-07-01T00:40:05.555Z,20.40
2018-07-01T00:42:34.808Z,20.40
2018-07-01T00:45:04.569Z,20.40
2018-07-01T00:47:33.774Z,20.40
2018-07-01T00:50:04.580Z,20.30
2018-07-01T00:52:33.851Z,20.30
2018-07-01T00:55:03.100Z,20.30
2018-07-01T00:57:32.296Z,20.30
2018-07-01T01:00:01.543Z,20.20
2018-07-01T01:02:30.739Z,20.20
2018-07-01T01:04:59.939Z,20.20
2018-07-01T01:07:29.428Z,20.20
2018-07-01T01:09:58.775Z,20.10
2018-07-01T01:12:28.051Z,20.10
2018-07-01T01:14:57.301Z,20.10
2018-07-01T01:17:26.523Z,20.00
2018-07-01T01:19:55.794Z,20.00
2018-07-01T01:22:24.975Z,20.00
2018-07-01T01:24:54.160Z,19.90
2018-07-01T01:29:52.077Z,20.00
2018-07-01T01:32:21.297Z,19.90
2018-07-01T01:34:50.545Z,20.00
2018-07-01T01:39:48.667Z,19.80
2018-07-01T01:42:53.635Z,19.80
2018-07-01T01:45:36.891Z,19.80
2018-07-01T01:48:14.660Z,19.70
2018-07-01T01:50:53.051Z,19.70
2018-07-01T01:53:27.404Z,19.70
2018-07-01T01:57:00.633Z,19.70
2018-07-01T01:59:35.505Z,19.70
2018-07-01T02:02:10.995Z,19.70
2018-07-01T02:08:31.572Z,19.60
2018-07-01T02:11:00.783Z,19.60
2018-07-01T02:13:30.840Z,19.60
2018-07-01T02:16:04.287Z,19.60
2018-07-01T02:18:33.480Z,19.60
2018-07-01T02:21:02.701Z,19.50
2018-07-01T02:23:42.810Z,19.60
2018-07-01T02:26:12.036Z,19.50
2018-07-01T02:28:41.679Z,19.50
2018-07-01T02:33:39.775Z,19.50
2018-07-01T02:36:09.390Z,19.40
2018-07-01T02:38:38.760Z,19.40
2018-07-01T02:41:07.987Z,19.40
2018-07-01T02:43:37.224Z,19.40
2018-07-01T02:46:06.477Z,19.40
2018-07-01T02:51:04.584Z,19.40
2018-07-01T02:53:33.784Z,19.40
2018-07-01T02:56:04.177Z,19.40
2018-07-01T02:58:33.711Z,19.30
2018-07-01T03:01:03.009Z,19.20
2018-07-01T03:03:32.160Z,19.20
2018-07-01T03:06:01.321Z,19.20
2018-07-01T03:08:30.771Z,19.10
2018-07-01T03:11:00.072Z,19.00
2018-07-01T03:13:29.312Z,19.10
2018-07-01T03:15:58.696Z,19.10
2018-07-01T03:20:56.616Z,19.10
2018-07-01T03:23:25.844Z,18.90
2018-07-01T03:25:55.379Z,18.80
2018-07-01T03:30:53.608Z,18.70
2018-07-01T03:33:22.840Z,18.60
2018-07-01T03:35:53.001Z,18.60
2018-07-01T03:38:22.168Z,18.60
2018-07-01T03:40:51.531Z,18.60
2018-07-01T03:43:20.737Z,18.60
2018-07-01T03:45:49.954Z,18.60
2018-07-01T03:48:19.328Z,18.50
2018-07-01T03:50:48.555Z,18.50
2018-07-01T03:53:17.757Z,18.50
2018-07-01T03:55:47.207Z,18.50
2018-07-01T03:58:16.469Z,18.50
2018-07-01T04:00:46.084Z,18.50
2018-07-01T04:03:15.271Z,18.50
2018-07-01T04:05:44.692Z,18.50
2018-07-01T04:08:13.870Z,18.50
2018-07-01T04:10:43.062Z,18.50
2018-07-01T04:13:12.251Z,18.60
2018-07-01T04:15:41.442Z,18.60
2018-07-01T04:18:10.733Z,18.60
2018-07-01T04:20:40.053Z,18.60
2018-07-01T04:23:09.560Z,18.70
2018-07-01T04:25:38.734Z,18.60
2018-07-01T04:28:07.903Z,18.60
2018-07-01T04:30:37.096Z,18.60
2018-07-01T04:33:06.301Z,18.60
2018-07-01T04:35:35.494Z,18.60
2018-07-01T04:38:05.324Z,18.70
2018-07-01T04:40:34.580Z,18.70
2018-07-01T04:43:04.007Z,18.80
2018-07-01T04:45:33.183Z,18.70
2018-07-01T04:50:31.140Z,18.80
2018-07-01T04:53:00.418Z,18.80
2018-07-01T04:55:29.589Z,18.80
2018-07-01T04:57:58.768Z,18.80
2018-07-01T05:00:27.947Z,18.90
2018-07-01T05:02:57.144Z,19.00
2018-07-01T05:05:26.340Z,19.00
2018-07-01T05:07:55.556Z,19.00
2018-07-01T05:10:24.891Z,19.10
2018-07-01T05:12:54.205Z,19.10
2018-07-01T05:15:23.396Z,19.10
2018-07-01T05:17:52.631Z,19.10
2018-07-01T05:20:21.859Z,19.20
2018-07-01T05:22:58.269Z,19.20
2018-07-01T05:25:27.514Z,19.30
2018-07-01T05:27:56.842Z,19.30
2018-07-01T05:30:26.051Z,19.40
2018-07-01T05:32:55.237Z,19.40
2018-07-01T05:35:24.480Z,19.40
2018-07-01T05:37:53.788Z,19.50
2018-07-01T05:40:23.032Z,19.50
2018-07-01T05:42:52.235Z,19.50
2018-07-01T05:45:22.589Z,19.60
2018-07-01T05:47:51.968Z,19.60
2018-07-01T05:50:21.160Z,19.60
2018-07-01T05:52:50.587Z,19.70
2018-07-01T05:55:19.892Z,19.70
2018-07-01T05:57:49.067Z,19.70
2018-07-01T06:00:18.710Z,19.80
2018-07-01T06:02:48.015Z,19.80
2018-07-01T06:05:17.234Z,19.80
2018-07-01T06:07:46.459Z,19.90
2018-07-01T06:10:16.020Z,20.00
2018-07-01T06:12:45.356Z,20.00
2018-07-01T06:15:14.559Z,20.00
2018-07-01T06:17:43.827Z,20.00
2018-07-01T06:22:41.911Z,20.10
2018-07-01T06:25:11.112Z,20.00
2018-07-01T06:27:40.292Z,20.00
2018-07-01T06:30:10.525Z,20.10
2018-07-01T06:32:39.812Z,20.20
2018-07-01T06:35:09.362Z,20.30
2018-07-01T06:37:38.573Z,20.40
2018-07-01T06:40:08.249Z,20.40
2018-07-01T06:42:37.636Z,20.40
2018-07-01T06:45:07.302Z,20.40
2018-07-01T06:47:36.544Z,20.50
2018-07-01T06:50:05.770Z,20.60
2018-07-01T06:52:34.948Z,20.50
2018-07-01T06:57:33.000Z,20.60
2018-07-01T07:00:02.256Z,20.70
2018-07-01T07:02:31.552Z,20.80
2018-07-01T07:05:00.670Z,20.90
2018-07-01T07:07:29.991Z,20.90
2018-07-01T07:12:27.932Z,21.10
2018-07-01T07:17:25.951Z,21.20
2018-07-01T07:19:55.571Z,21.30
2018-07-01T07:22:24.882Z,21.40
2018-07-01T07:24:54.500Z,21.30
2018-07-01T07:27:23.828Z,21.30
2018-07-01T07:29:52.993Z,21.40
2018-07-01T07:32:22.559Z,21.50
2018-07-01T07:34:52.037Z,21.60
2018-07-01T07:37:21.280Z,21.60
2018-07-01T07:39:51.000Z,21.70
2018-07-01T07:42:20.361Z,21.60
2018-07-01T07:44:49.624Z,21.70
2018-07-01T07:47:19.091Z,21.60
2018-07-01T07:49:48.662Z,21.70
2018-07-01T07:52:17.905Z,21.80
2018-07-01T07:54:47.188Z,21.90
2018-07-01T07:57:16.482Z,21.90
2018-07-01T07:59:45.968Z,21.90
2018-07-01T08:02:15.378Z,21.90
2018-07-01T08:04:44.785Z,22.00
2018-07-01T08:07:14.076Z,22.10
2018-07-01T08:09:43.381Z,22.10
2018-07-01T08:12:12.626Z,22.20
2018-07-01T08:14:41.837Z,22.20
2018-07-01T08:17:11.262Z,22.40
2018-07-01T08:19:40.676Z,22.40
2018-07-01T08:22:09.890Z,22.60
2018-07-01T08:24:39.067Z,22.60
2018-07-01T08:27:08.618Z,22.70
2018-07-01T08:29:37.849Z,22.40
2018-07-01T08:32:07.071Z,22.60
2018-07-01T08:34:36.328Z,22.80
2018-07-01T08:37:05.768Z,22.90
2018-07-01T08:39:35.003Z,22.90
2018-07-01T08:42:36.310Z,22.90
2018-07-01T08:45:07.787Z,23.00
2018-07-01T08:47:37.483Z,23.00
2018-07-01T08:50:07.375Z,23.10
2018-07-01T08:55:05.501Z,23.30
2018-07-01T08:57:35.428Z,23.20
2018-07-01T09:00:06.264Z,23.10
2018-07-01T09:02:35.767Z,23.00
2018-07-01T09:05:05.505Z,23.20
2018-07-01T09:07:34.848Z,23.40
2018-07-01T09:10:04.667Z,23.60
2018-07-01T09:12:33.967Z,23.50
2018-07-01T09:17:31.919Z,23.40
2018-07-01T09:20:01.762Z,23.60
2018-07-01T09:22:30.976Z,23.70
2018-07-01T09:25:00.392Z,23.70
2018-07-01T09:27:29.719Z,23.60
2018-07-01T09:30:00.473Z,23.70
2018-07-01T09:32:30.331Z,23.90
2018-07-01T09:35:00.185Z,24.10
2018-07-01T09:37:29.495Z,24.20
2018-07-01T09:39:58.789Z,24.10
2018-07-01T09:42:28.327Z,23.90
2018-07-01T09:44:57.584Z,23.90
2018-07-01T09:47:26.782Z,24.30
2018-07-01T09:49:56.055Z,24.40
2018-07-01T09:52:25.391Z,24.60
2018-07-01T09:54:54.927Z,24.40
2018-07-01T09:57:24.127Z,24.20
2018-07-01T09:59:53.361Z,24.40
2018-07-01T10:02:22.732Z,24.50
2018-07-01T10:04:51.948Z,24.70
2018-07-01T10:07:21.239Z,24.60
2018-07-01T10:09:50.590Z,24.40
2018-07-01T10:12:19.887Z,24.40
2018-07-01T10:14:49.599Z,24.60
2018-07-01T10:17:18.940Z,24.90
2018-07-01T10:19:48.196Z,24.80
2018-07-01T10:22:17.428Z,25.00
2018-07-01T10:24:46.655Z,25.10
2018-07-01T10:27:15.973Z,25.10
2018-07-01T10:29:45.286Z,25.20
2018-07-01T10:32:14.439Z,25.30
2018-07-01T10:34:43.717Z,25.60
2018-07-01T10:37:13.089Z,25.80
2018-07-01T10:39:42.291Z,26.00
2018-07-01T10:42:11.863Z,25.90
2018-07-01T10:44:41.130Z,25.90
2018-07-01T10:47:10.441Z,25.70
2018-07-01T10:49:39.603Z,25.70
2018-07-01T10:52:08.911Z,25.60
2018-07-01T10:54:38.100Z,25.70
2018-07-01T10:57:07.387Z,25.70
2018-07-01T10:59:36.589Z,25.90
2018-07-01T11:02:06.346Z,26.30
2018-07-01T11:04:35.580Z,26.40
2018-07-01T11:07:05.452Z,26.50
2018-07-01T11:09:34.663Z,26.60
2018-07-01T11:12:04.095Z,26.60
2018-07-01T11:14:33.335Z,26.60
2018-07-01T11:17:02.568Z,26.40
2018-07-01T11:19:31.883Z,26.40
2018-07-01T11:22:01.312Z,26.50
2018-07-01T11:24:31.060Z,26.50
2018-07-01T11:27:00.869Z,26.50
2018-07-01T11:29:29.902Z,26.50
2018-07-01T11:31:59.234Z,26.50
2018-07-01T11:34:28.412Z,26.30
2018-07-01T11:36:57.735Z,26.50
2018-07-01T11:39:26.944Z,26.60
2018-07-01T11:41:56.239Z,26.90
2018-07-01T11:44:25.541Z,27.10
2018-07-01T11:46:54.714Z,27.10
2018-07-01T11:49:23.883Z,27.20
2018-07-01T11:51:53.455Z,26.70
2018-07-01T11:54:22.837Z,26.70
2018-07-01T11:56:52.068Z,26.90
2018-07-01T12:01:50.330Z,27.10
2018-07-01T12:04:21.511Z,27.30
2018-07-01T12:06:50.705Z,27.40
2018-07-01T12:09:19.973Z,27.40
2018-07-01T12:11:49.322Z,27.50
2018-07-01T12:14:18.544Z,27.50
2018-07-01T12:16:47.753Z,27.50
2018-07-01T12:19:17.052Z,27.70
2018-07-01T12:22:09.578Z,27.40
2018-07-01T12:24:38.796Z,27.30
2018-07-01T12:27:08.324Z,27.30
2018-07-01T12:32:06.387Z,27.30
2018-07-01T12:34:35.804Z,27.70
2018-07-01T12:37:05.169Z,28.10
2018-07-01T12:39:34.688Z,28.20
2018-07-01T12:42:04.305Z,28.30
2018-07-01T12:44:33.559Z,28.50
2018-07-01T12:47:03.102Z,28.60
2018-07-01T12:49:32.326Z,28.20
2018-07-01T12:52:01.569Z,28.30
2018-07-01T12:54:31.137Z,28.10
2018-07-01T12:57:00.388Z,28.20
2018-07-01T12:59:29.591Z,28.00
2018-07-01T13:01:58.894Z,28.10
2018-07-01T13:04:28.735Z,28.10
2018-07-01T13:06:58.285Z,28.20
2018-07-01T13:09:27.920Z,28.40
2018-07-01T13:11:57.235Z,28.80
2018-07-01T13:14:26.376Z,29.10
2018-07-01T13:16:55.739Z,29.00
2018-07-01T13:19:24.999Z,28.50
2018-07-01T13:21:54.254Z,28.20
2018-07-01T13:24:23.885Z,28.80
2018-07-01T13:26:53.437Z,29.20
2018-07-01T13:29:22.757Z,28.80
2018-07-01T13:31:52.096Z,29.00
2018-07-01T13:34:21.406Z,28.70
2018-07-01T13:36:50.819Z,28.60
2018-07-01T13:39:20.064Z,28.70
2018-07-01T13:41:49.260Z,29.00
2018-07-01T13:46:47.259Z,28.80
2018-07-01T13:49:16.697Z,28.80
2018-07-01T13:51:45.804Z,28.80
2018-07-01T13:54:15.160Z,28.50
2018-07-01T13:56:44.383Z,28.60
2018-07-01T13:59:13.601Z,28.80
2018-07-01T14:01:42.809Z,28.90
2018-07-01T14:04:12.258Z,29.00
2018-07-01T14:06:41.446Z,29.00
2018-07-01T14:09:14.449Z,29.30
2018-07-01T14:11:43.709Z,29.70
2018-07-01T14:14:13.576Z,30.20
2018-07-01T14:16:42.887Z,29.80
2018-07-01T14:19:12.103Z,30.00
2018-07-01T14:21:41.428Z,29.70
2018-07-01T14:24:10.772Z,29.60
2018-07-01T14:26:40.207Z,29.50
2018-07-01T14:29:10.506Z,29.60
2018-07-01T14:31:39.705Z,29.50
2018-07-01T14:34:09.095Z,29.40
2018-07-01T14:36:38.284Z,29.60
2018-07-01T14:39:10.459Z,29.70
2018-07-01T14:41:39.857Z,29.80
2018-07-01T14:44:09.244Z,29.30
2018-07-01T14:46:38.463Z,29.40
2018-07-01T14:49:07.968Z,29.40
2018-07-01T14:54:06.335Z,29.50
2018-07-01T14:56:35.609Z,29.70
2018-07-01T14:59:04.928Z,29.50
2018-07-01T15:01:34.198Z,29.70
2018-07-01T15:04:03.973Z,29.90
2018-07-01T15:06:33.492Z,29.80
2018-07-01T15:09:02.752Z,29.70
2018-07-01T15:11:32.139Z,29.40
2018-07-01T15:14:01.392Z,29.40
2018-07-01T15:16:30.765Z,29.50
2018-07-01T15:19:00.180Z,29.60
2018-07-01T15:21:29.405Z,29.60
2018-07-01T15:23:58.684Z,29.70
2018-07-01T15:26:28.122Z,29.60
2018-07-01T15:28:57.344Z,29.40
2018-07-01T15:31:26.682Z,29.40
2018-07-01T15:33:55.916Z,29.40
2018-07-01T15:36:25.170Z,29.00
2018-07-01T15:38:54.890Z,28.90
2018-07-01T15:41:24.428Z,28.90
2018-07-01T15:43:53.624Z,29.00
2018-07-01T15:46:23.416Z,29.00
2018-07-01T15:48:52.636Z,28.90
2018-07-01T15:51:22.273Z,28.80
2018-07-01T15:53:52.036Z,28.60
2018-07-01T15:56:21.412Z,28.50
2018-07-01T15:58:51.762Z,28.50
2018-07-01T16:01:21.056Z,28.40
2018-07-01T16:03:50.585Z,28.50
2018-07-01T16:06:19.768Z,28.50
2018-07-01T16:08:49.139Z,28.40
2018-07-01T16:11:18.312Z,28.30
2018-07-01T16:13:47.814Z,28.20
2018-07-01T16:16:17.183Z,28.10
2018-07-01T16:18:46.713Z,28.00
2018-07-01T16:21:16.044Z,28.00
2018-07-01T16:23:45.814Z,28.00
2018-07-01T16:26:21.121Z,28.00
2018-07-01T16:28:55.838Z,28.00
2018-07-01T16:31:25.573Z,28.00
2018-07-01T16:33:54.912Z,28.00
2018-07-01T16:36:24.234Z,28.00
2018-07-01T16:38:53.569Z,28.00
2018-07-01T16:41:22.785Z,28.00
2018-07-01T16:43:52.084Z,28.00
2018-07-01T16:46:21.477Z,28.10
2018-07-01T16:48:50.809Z,28.10
2018-07-01T16:51:20.124Z,28.00
2018-07-01T16:53:49.435Z,28.00
2018-07-01T16:56:18.743Z,27.80
2018-07-01T16:58:48.179Z,27.80
2018-07-01T17:01:17.690Z,27.80
2018-07-01T17:03:46.985Z,27.80
2018-07-01T17:06:16.860Z,27.80
2018-07-01T17:08:46.325Z,27.70
2018-07-01T17:11:16.471Z,27.60
2018-07-01T17:13:45.817Z,27.50
2018-07-01T17:16:15.437Z,27.50
2018-07-01T17:18:44.687Z,27.50
2018-07-01T17:21:14.199Z,27.50
2018-07-01T17:23:43.427Z,27.50
2018-07-01T17:26:12.701Z,27.50
2018-07-01T17:28:41.934Z,27.50
2018-07-01T17:31:16.567Z,27.40
2018-07-01T17:33:46.424Z,27.40
2018-07-01T17:36:15.724Z,27.40
2018-07-01T17:38:44.998Z,27.30
2018-07-01T17:41:14.242Z,27.30
2018-07-01T17:43:43.529Z,27.20
2018-07-01T17:46:12.998Z,27.20
2018-07-01T17:48:43.114Z,27.20
2018-07-01T17:51:12.727Z,27.10
2018-07-01T17:53:49.588Z,27.10
2018-07-01T17:56:18.824Z,27.10
2018-07-01T17:58:48.217Z,27.10
2018-07-01T18:01:17.905Z,27.00
2018-07-01T18:03:47.583Z,27.10
2018-07-01T18:06:17.468Z,27.20
2018-07-01T18:08:46.743Z,27.10
2018-07-01T18:11:21.245Z,26.80
2018-07-01T18:13:50.517Z,26.80
2018-07-01T18:16:19.751Z,26.70
2018-07-01T18:18:48.974Z,26.60
2018-07-01T18:21:20.255Z,26.50
2018-07-01T18:28:55.767Z,26.40
2018-07-01T18:31:14.802Z,26.30
2018-07-01T18:33:44.271Z,26.30
2018-07-01T18:36:13.462Z,26.30
2018-07-01T18:38:42.776Z,26.20
2018-07-01T18:41:12.187Z,26.10
2018-07-01T18:43:41.372Z,26.10
2018-07-01T18:46:10.546Z,26.10
2018-07-01T18:48:39.791Z,26.10
2018-07-01T18:51:09.144Z,26.00
2018-07-01T18:53:38.456Z,26.00
2018-07-01T18:56:07.724Z,26.00
2018-07-01T18:58:37.070Z,25.90
2018-07-01T19:01:06.361Z,25.80
2018-07-01T19:06:04.494Z,25.70
2018-07-01T19:08:34.054Z,25.60
2018-07-01T19:11:07.451Z,25.60
2018-07-01T19:13:36.986Z,25.50
2018-07-01T19:16:06.272Z,25.50
2018-07-01T19:18:35.604Z,25.40
2018-07-01T19:21:07.523Z,25.40
2018-07-01T19:26:06.177Z,25.20
2018-07-01T19:28:35.491Z,25.20
2018-07-01T19:31:04.772Z,25.10
2018-07-01T19:33:34.912Z,25.10
2018-07-01T19:36:08.570Z,25.00
2018-07-01T19:38:37.806Z,24.90
2018-07-01T19:41:07.252Z,24.90
2018-07-01T19:43:37.569Z,24.80
2018-07-01T19:46:07.100Z,24.80
2018-07-01T19:48:36.309Z,24.80
2018-07-01T19:51:05.680Z,24.80
2018-07-01T19:53:40.594Z,24.80
2018-07-01T19:56:09.890Z,24.80
2018-07-01T19:58:39.077Z,24.80
2018-07-01T20:01:08.495Z,24.70
2018-07-01T20:06:06.572Z,24.60
2018-07-01T20:08:36.059Z,24.60
2018-07-01T20:11:05.262Z,24.50
2018-07-01T20:13:35.037Z,24.50
2018-07-01T20:16:04.919Z,24.30
2018-07-01T20:18:34.633Z,24.10
2018-07-01T20:21:04.005Z,24.00
2018-07-01T20:23:34.526Z,23.80
2018-07-01T20:26:03.990Z,23.70
2018-07-01T20:31:02.583Z,23.70
2018-07-01T20:33:31.885Z,23.70
2018-07-01T20:36:02.115Z,23.60
2018-07-01T20:38:31.385Z,23.60
2018-07-01T20:41:00.935Z,23.50
2018-07-01T20:43:30.313Z,23.40
2018-07-01T20:45:59.517Z,23.30
2018-07-01T20:48:28.699Z,23.20
2018-07-01T20:50:58.047Z,23.20
2018-07-01T20:53:27.408Z,23.20
2018-07-01T20:55:57.248Z,23.20
2018-07-01T20:58:26.512Z,23.10
2018-07-01T21:00:55.976Z,23.00
2018-07-01T21:03:25.224Z,23.00
2018-07-01T21:05:54.585Z,22.90
2018-07-01T21:08:24.012Z,22.90
2018-07-01T21:10:53.467Z,22.90
2018-07-01T21:13:22.708Z,22.80
2018-07-01T21:15:51.935Z,22.70
2018-07-01T21:18:21.184Z,22.70
2018-07-01T21:20:50.521Z,22.50
2018-07-01T21:23:19.895Z,22.40
2018-07-01T21:25:49.269Z,22.40
2018-07-01T21:28:18.691Z,22.30
2018-07-01T21:30:48.055Z,22.30
2018-07-01T21:33:17.724Z,22.30
2018-07-01T21:35:47.277Z,22.30
2018-07-01T21:38:16.963Z,22.30
2018-07-01T21:40:46.181Z,22.10
2018-07-01T21:43:15.479Z,22.10
2018-07-01T21:45:44.725Z,22.00
2018-07-01T21:48:14.264Z,22.00
2018-07-01T21:50:43.505Z,21.90
2018-07-01T21:53:12.691Z,21.90
2018-07-01T21:55:46.116Z,21.80
2018-07-01T21:58:15.465Z,21.70
2018-07-01T22:00:44.756Z,21.60
2018-07-01T22:03:14.259Z,21.50
2018-07-01T22:05:43.655Z,21.50
2018-07-01T22:08:12.953Z,21.50
2018-07-01T22:11:56.397Z,21.50
2018-07-01T22:14:31.009Z,21.50
2018-07-01T22:17:00.640Z,21.40
2018-07-01T22:19:30.019Z,21.30
2018-07-01T22:21:59.724Z,21.20
2018-07-01T22:24:31.276Z,21.20
2018-07-01T22:27:00.508Z,21.20
2018-07-01T22:29:29.759Z,21.20
2018-07-01T22:31:59.185Z,21.10
2018-07-01T22:34:28.403Z,21.00
2018-07-01T22:36:57.774Z,21.00
2018-07-01T22:39:28.281Z,21.00
2018-07-01T22:41:59.184Z,21.00
2018-07-01T22:44:28.778Z,21.00
2018-07-01T22:46:57.972Z,21.00
2018-07-01T22:49:27.293Z,20.90
2018-07-01T22:51:56.519Z,20.90
2018-07-01T22:54:26.242Z,20.80
2018-07-01T22:56:55.566Z,20.80
2018-07-01T22:59:24.736Z,20.70
2018-07-01T23:03:07.389Z,20.70
2018-07-01T23:05:36.572Z,20.60
2018-07-01T23:08:05.941Z,20.60
2018-07-01T23:10:35.219Z,20.60
2018-07-01T23:13:04.893Z,20.60
2018-07-01T23:15:34.197Z,20.50
2018-07-01T23:18:03.430Z,20.50
2018-07-01T23:20:32.880Z,20.40
2018-07-01T23:23:02.085Z,20.40
2018-07-01T23:25:31.291Z,20.40
2018-07-01T23:28:00.564Z,20.40
2018-07-01T23:30:29.861Z,20.30
2018-07-01T23:32:59.031Z,20.20
2018-07-01T23:35:28.244Z,20.20
2018-07-01T23:37:57.420Z,20.20
2018-07-01T23:40:26.644Z,20.10
2018-07-01T23:42:55.840Z,20.10
2018-07-01T23:45:25.053Z,20.10
2018-07-01T23:47:54.251Z,20.10
2018-07-01T23:52:52.345Z,20.00
2018-07-01T23:55:21.595Z,20.10
2018-07-01T23:57:50.980Z,20.10
